Cormorant, Minnesota
Current Conditions -  °F | °C
As of 6:55 AM on Monday 22 Dec 2014 (Local Time) from KDTL Reporting Station
Light Rain Light Rain  
Wind Chill: 28°   Ceiling: 600
Heat Index: 36°   Visibility: 3mi
Dew Point: 36°   Wind: 10mph
Humidity: 100%   Direction: 140°SE
Pressure: 29.52"   Gusts: NA
Location:  46.6222°N, 96.0745°W
Report Text: KDTL 221255Z AUTO 14009KT 3SM -RA OVC006 02/02 A2952 RMK AO2
Loading
Personal Weather Stations






























Interactive Weather Map New forecast layout! Learn more

10-Day Weather Forecast

Advertisements
Track Severe Weather on mobile